createdAt,value
2018-03-03T00:03:26.495Z,70.2
2018-03-03T00:13:25.831Z,78.1
2018-03-03T00:23:25.187Z,79.9
2018-03-03T00:33:24.458Z,71.4
2018-03-03T00:43:23.763Z,66.9
2018-03-03T00:53:23.088Z,69.1
2018-03-03T01:03:22.609Z,69.1
2018-03-03T01:13:21.949Z,69.2
2018-03-03T01:23:21.450Z,63.7
2018-03-03T01:33:21.174Z,61.3
2018-03-03T01:43:20.519Z,61.1
2018-03-03T01:53:20.144Z,58.7
2018-03-03T02:03:19.531Z,47.3
2018-03-03T02:13:18.791Z,47.1
2018-03-03T02:23:18.077Z,40.9
2018-03-03T02:33:17.352Z,39.6
2018-03-03T02:43:16.794Z,41
2018-03-03T02:53:16.160Z,43
2018-03-03T03:03:15.570Z,43.7
2018-03-03T03:13:14.911Z,34.4
2018-03-03T03:23:14.261Z,31.9
2018-03-03T03:33:13.684Z,28
2018-03-03T03:43:13.016Z,26.5
2018-03-03T03:53:12.283Z,30.6
2018-03-03T04:03:11.767Z,27.9
2018-03-03T04:13:10.936Z,25.6
2018-03-03T04:23:10.199Z,23.2
2018-03-03T04:33:09.549Z,24.5
2018-03-03T04:43:08.785Z,17.8
2018-03-03T04:53:08.308Z,19.3
2018-03-03T05:03:07.538Z,18.4
2018-03-03T05:13:06.776Z,24.4
2018-03-03T05:23:06.144Z,21.3
2018-03-03T05:33:05.699Z,22
2018-03-03T05:43:05.266Z,18.5
2018-03-03T05:53:04.560Z,19
2018-03-03T06:03:04.145Z,19.5
2018-03-03T06:13:03.495Z,19.4
2018-03-03T06:23:02.924Z,19.7
2018-03-03T06:33:02.435Z,23.8
2018-03-03T06:43:02.051Z,25.2
2018-03-03T06:53:01.514Z,23.2
2018-03-03T07:03:00.749Z,22.8
2018-03-03T07:13:00.150Z,18.4
2018-03-03T07:23:00.070Z,22.7
2018-03-03T07:32:59.667Z,18.6
2018-03-03T07:42:59.614Z,18.2
2018-03-03T07:52:59.053Z,18.5
2018-03-03T08:02:58.505Z,17.5
2018-03-03T08:12:57.916Z,22.3
2018-03-03T08:22:57.307Z,21
2018-03-03T08:32:56.688Z,20.9
2018-03-03T08:42:56.041Z,20.1
2018-03-03T08:52:56.008Z,21.1
2018-03-03T09:02:55.395Z,20
2018-03-03T09:12:55.094Z,21.4
2018-03-03T09:22:54.713Z,18.3
2018-03-03T09:32:54.447Z,15.9
2018-03-03T09:42:54.891Z,15.1
2018-03-03T09:53:01.872Z,18.3
